Terminal Aerodrome Forecast
Issued by NWS

Current Version | Previous Version | Graphics & Text | Print | Product List | Glossary On
Versions: 1 2 3 4 5 6 7 8 9 10 11 12 13 14 15 16 17 18 19 20 21 22 23 24 25 26 27 28 29 30
000
FTUS41 KRLX 191900 AAA
TAFCKB
TAF AMD
KCKB 191949Z 1920/2018 16007KT P6SM SCT020 BKN040
      TEMPO 1920/1922 -SHRA BKN020
     FM200500 00000KT 5SM BR BKN060
     FM201200 00000KT P6SM BKN060=

USA.gov is the U.S. government's official web portal to all federal, state and local government web resources and services.